Time;durP1;ratioP1;P1;durP2;ratioP2;P2;SDS_P1;SDS_P2;PMS_P1;PMS_P2;Temp;Humidity;BMP_temperature;BMP_pressure;BME280_temperature;BME280_humidity;BME280_pressure;Samples;Min_cycle;Max_cycle;Signal;HPM_P1;HPM_P2
2024/01/24 00:00:13;;;;;;;9.68;8.68;;;;;;;-146.25;100.00;52546.63;2016374;29;33634;-63
2024/01/24 00:01:18;;;;;;;11.98;8.82;;;;;;;-146.25;100.00;52564.88;2016700;29;20088;-63
2024/01/24 00:02:20;;;;;;;11.63;8.52;;;;;;;-146.25;100.00;52554.75;2016490;29;34984;-63
2024/01/24 00:03:21;;;;;;;10.57;8.45;;;;;;;-146.25;100.00;52522.28;2008315;29;33617;-63
2024/01/24 00:04:24;;;;;;;10.43;8.45;;;;;;;-146.25;100.00;52522.28;2015681;29;35172;-63
2024/01/24 00:05:26;;;;;;;9.50;8.30;;;;;;;-146.25;100.00;52570.97;2015153;29;34173;-62
2024/01/24 00:06:28;;;;;;;10.85;9.30;;;;;;;-146.25;100.00;52506.06;2015636;29;33075;-63
2024/01/24 00:07:31;;;;;;;12.35;8.82;;;;;;;-146.25;100.00;52548.66;2015773;29;20101;-63
2024/01/24 00:08:33;;;;;;;11.23;9.52;;;;;;;-146.25;100.00;52550.69;2008595;29;32917;-63
2024/01/24 00:09:35;;;;;;;12.45;9.50;;;;;;;-146.25;100.00;52542.56;2022324;29;20168;-63
2024/01/24 00:10:37;;;;;;;11.73;9.65;;;;;;;-146.25;100.00;52526.34;2023844;29;34398;-64
2024/01/24 00:11:39;;;;;;;15.95;10.75;;;;;;;-146.25;100.00;52558.78;2023658;29;30867;-63
2024/01/24 00:12:40;;;;;;;13.27;9.88;;;;;;;-146.25;100.00;52534.47;2024805;29;20531;-63
2024/01/24 00:13:42;;;;;;;12.02;10.00;;;;;;;-146.25;100.00;52518.25;2024009;29;26868;-63
2024/01/24 00:14:44;;;;;;;11.02;9.88;;;;;;;-146.25;100.00;52554.75;2024547;29;20264;-64
2024/01/24 00:15:47;;;;;;;13.05;10.80;;;;;;;-146.25;100.00;52526.34;2024130;29;23209;-64
2024/01/24 00:16:50;;;;;;;13.02;10.00;;;;;;;-146.25;100.00;52562.84;2024538;29;20511;-63
2024/01/24 00:17:52;;;;;;;13.27;10.45;;;;;;;-146.25;100.00;52532.44;2023392;29;30106;-64
2024/01/24 00:18:53;;;;;;;13.82;10.10;;;;;;;-146.25;100.00;52554.75;2023766;29;33227;-63
2024/01/24 00:19:55;;;;;;;15.55;10.68;;;;;;;-146.25;100.00;52554.75;2015079;29;35982;-63
2024/01/24 00:20:57;;;;;;;13.18;10.98;;;;;;;-146.25;100.00;52542.56;2016178;29;37444;-63
2024/01/24 00:21:59;;;;;;;13.30;10.70;;;;;;;-146.25;100.00;52522.28;2016870;29;20975;-63
2024/01/24 00:23:01;;;;;;;15.57;11.05;;;;;;;-146.25;100.00;52556.75;2016253;29;35103;-64
2024/01/24 00:24:05;;;;;;;15.27;11.07;;;;;;;-146.25;100.00;52540.53;2016031;29;34488;-63
2024/01/24 00:25:07;;;;;;;13.35;10.77;;;;;;;-146.25;100.00;52570.97;2016246;29;23232;-63
2024/01/24 00:26:11;;;;;;;15.02;11.05;;;;;;;-146.25;100.00;52522.28;2016032;29;35788;-63
2024/01/24 00:27:13;;;;;;;13.88;10.65;;;;;;;-146.25;100.00;52526.34;2016525;29;20168;-63
2024/01/24 00:28:16;;;;;;;15.70;11.35;;;;;;;-146.25;100.00;52518.25;2016104;29;35210;-63
2024/01/24 00:29:17;;;;;;;15.38;10.68;;;;;;;-146.25;100.00;52536.50;2015811;29;37388;-63
2024/01/24 00:30:22;;;;;;;12.13;10.38;;;;;;;-146.25;100.00;52562.84;2016461;29;20046;-63
2024/01/24 00:31:24;;;;;;;11.85;10.63;;;;;;;-146.25;100.00;52544.59;2016205;29;35089;-63
2024/01/24 00:32:26;;;;;;;14.93;11.23;;;;;;;-146.25;100.00;52542.56;2018117;29;20092;-63
2024/01/24 00:33:29;;;;;;;17.15;11.25;;;;;;;-146.25;100.00;52558.78;2016394;29;35560;-63
2024/01/24 00:34:31;;;;;;;14.48;10.77;;;;;;;-146.25;100.00;52520.28;2015894;29;37148;-63
2024/01/24 00:35:33;;;;;;;13.38;10.60;;;;;;;-146.25;100.00;52530.41;2015951;29;34351;-63
2024/01/24 00:36:34;;;;;;;14.57;10.43;;;;;;;-146.25;100.00;52546.63;2023137;29;20934;-63
2024/01/24 00:37:36;;;;;;;11.95;10.63;;;;;;;-146.25;100.00;52506.06;2023543;29;20041;-63
2024/01/24 00:38:42;;;;;;;12.48;9.57;;;;;;;-146.25;100.00;52528.38;2015906;29;34992;-63
2024/01/24 00:39:46;;;;;;;12.52;9.70;;;;;;;-146.25;100.00;52548.66;2015363;29;36245;-64
2024/01/24 00:40:48;;;;;;;12.00;9.43;;;;;;;-146.25;100.00;52562.84;2014732;29;28738;-64
2024/01/24 00:41:50;;;;;;;11.98;9.23;;;;;;;-146.25;100.00;52530.41;2015761;29;34019;-63
2024/01/24 00:42:52;;;;;;;10.70;9.40;;;;;;;-146.25;100.00;52548.66;2016592;29;20089;-63
2024/01/24 00:43:54;;;;;;;14.73;10.20;;;;;;;-146.25;100.00;52530.41;2015949;29;36771;-63
2024/01/24 00:44:56;;;;;;;11.50;9.57;;;;;;;-146.25;100.00;52562.84;2015801;29;32870;-64
2024/01/24 00:46:00;;;;;;;13.07;9.85;;;;;;;-146.25;100.00;52506.06;2016015;29;35593;-64
2024/01/24 00:47:05;;;;;;;11.15;9.95;;;;;;;-146.25;100.00;52534.47;2015922;29;33995;-64
2024/01/24 00:48:09;;;;;;;11.38;8.50;;;;;;;-146.25;100.00;52562.84;2016687;29;20172;-63
2024/01/24 00:49:12;;;;;;;11.20;8.55;;;;;;;-146.25;100.00;52524.31;2022549;29;36839;-63
2024/01/24 00:50:14;;;;;;;11.80;9.02;;;;;;;-146.25;100.00;52558.78;2022948;29;31649;-64
2024/01/24 00:51:16;;;;;;;11.20;8.88;;;;;;;-146.25;100.00;52495.94;2022630;29;35440;-63
2024/01/24 00:52:17;;;;;;;13.27;8.80;;;;;;;-146.25;100.00;52526.34;2018468;29;31971;-64
2024/01/24 00:53:22;;;;;;;12.60;8.35;;;;;;;-146.25;100.00;52536.50;2019113;29;20088;-64
2024/01/24 00:54:27;;;;;;;11.02;8.35;;;;;;;-146.25;100.00;52542.56;2018303;29;37243;-64
2024/01/24 00:55:31;;;;;;;10.70;8.15;;;;;;;-146.25;100.00;52506.06;2018186;29;34099;-63
2024/01/24 00:56:33;;;;;;;9.52;7.90;;;;;;;-146.25;100.00;52546.63;2025651;29;35682;-64
2024/01/24 00:57:35;;;;;;;10.80;8.02;;;;;;;-146.25;100.00;52536.50;2025862;29;20060;-64
2024/01/24 00:58:39;;;;;;;10.43;7.85;;;;;;;-146.25;100.00;52522.28;2018182;29;35099;-64
2024/01/24 00:59:40;;;;;;;10.57;7.43;;;;;;;-146.25;100.00;52536.50;2017911;29;38376;-64
2024/01/24 01:00:42;;;;;;;9.32;7.22;;;;;;;-146.25;100.00;52536.50;2018440;29;34469;-64
2024/01/24 01:01:44;;;;;;;10.25;7.13;;;;;;;-146.25;100.00;52558.78;2018342;29;35585;-64
2024/01/24 01:02:46;;;;;;;9.75;7.03;;;;;;;-146.25;100.00;52546.63;2020015;29;20164;-63
2024/01/24 01:03:47;;;;;;;8.27;7.07;;;;;;;-146.25;100.00;52526.34;2018234;29;37679;-63
2024/01/24 01:04:50;;;;;;;9.77;6.53;;;;;;;-146.25;100.00;52530.41;2018733;29;20168;-63
2024/01/24 01:05:52;;;;;;;7.75;6.22;;;;;;;-146.25;100.00;52577.03;2019011;29;34882;-63
2024/01/24 01:06:54;;;;;;;9.25;6.47;;;;;;;-146.25;100.00;52552.72;2018505;29;34262;-64
2024/01/24 01:07:56;;;;;;;7.43;5.80;;;;;;;-146.25;100.00;52522.28;2018304;29;34909;-64
2024/01/24 01:09:00;;;;;;;5.93;5.32;;;;;;;-146.25;100.00;52518.25;2018449;29;36975;-64
2024/01/24 01:10:08;;;;;;;9.50;6.03;;;;;;;-146.25;100.00;52534.47;2026084;29;20067;-64
2024/01/24 01:11:10;;;;;;;9.38;5.97;;;;;;;-146.25;100.00;52560.81;2024772;29;33001;-64
2024/01/24 01:12:12;;;;;;;7.40;5.55;;;;;;;-146.25;100.00;52514.19;2018187;29;33641;-63
2024/01/24 01:13:13;;;;;;;7.47;5.53;;;;;;;-146.25;100.00;52554.75;2018588;29;30972;-64
2024/01/24 01:14:15;;;;;;;7.55;5.15;;;;;;;-146.25;100.00;52540.53;2017896;29;36985;-64
2024/01/24 01:15:17;;;;;;;8.48;5.25;;;;;;;-146.25;100.00;52562.84;2018456;29;34697;-64
2024/01/24 01:16:19;;;;;;;5.60;4.85;;;;;;;-146.25;100.00;52544.59;2018093;29;37140;-64
2024/01/24 01:17:21;;;;;;;5.30;4.80;;;;;;;-146.25;100.00;52534.47;2018542;29;20061;-63
2024/01/24 01:18:23;;;;;;;6.20;4.57;;;;;;;-146.25;100.00;52534.47;2018281;29;36298;-64
2024/01/24 01:19:25;;;;;;;5.40;4.78;;;;;;;-146.25;100.00;52540.53;2018543;29;33683;-64
2024/01/24 01:20:27;;;;;;;5.85;4.65;;;;;;;-146.25;100.00;52544.59;2017563;29;32815;-63
2024/01/24 01:21:31;;;;;;;6.32;4.60;;;;;;;-146.25;100.00;52532.44;2018473;29;37088;-63
2024/01/24 01:22:33;;;;;;;6.35;4.68;;;;;;;-146.25;100.00;52522.28;2018240;29;34024;-63
2024/01/24 01:23:37;;;;;;;6.05;4.50;;;;;;;-146.25;100.00;52526.34;2019056;29;21007;-63
2024/01/24 01:24:39;;;;;;;5.05;4.40;;;;;;;-146.25;100.00;52570.97;2018914;29;20861;-63
2024/01/24 01:25:41;;;;;;;6.38;4.53;;;;;;;-146.25;100.00;52506.06;2017989;29;32486;-63
2024/01/24 01:26:46;;;;;;;6.35;4.13;;;;;;;-146.25;100.00;52542.56;2018314;29;34417;-64
2024/01/24 01:27:50;;;;;;;5.13;3.92;;;;;;;-146.25;100.00;52552.72;2018558;29;32517;-63
2024/01/24 01:28:52;;;;;;;4.82;4.10;;;;;;;-146.25;100.00;52510.13;2018417;29;32413;-64
2024/01/24 01:29:54;;;;;;;4.10;3.70;;;;;;;-146.25;100.00;52481.75;2018957;29;20050;-64
2024/01/24 01:30:56;;;;;;;5.13;4.05;;;;;;;-146.25;100.00;52548.66;2017676;29;36607;-63
2024/01/24 01:31:57;;;;;;;5.22;3.70;;;;;;;-146.25;100.00;52540.53;2018260;29;34580;-63
2024/01/24 01:32:59;;;;;;;6.82;4.13;;;;;;;-146.25;100.00;52562.84;2018280;29;31180;-64
2024/01/24 01:34:02;;;;;;;6.00;3.70;;;;;;;-146.25;100.00;52536.50;2017125;29;36548;-64
2024/01/24 01:35:06;;;;;;;4.53;3.45;;;;;;;-146.25;100.00;52514.19;2017594;29;20042;-64
2024/01/24 01:36:08;;;;;;;4.53;3.97;;;;;;;-146.25;100.00;52542.56;2017623;29;33910;-64
2024/01/24 01:37:14;;;;;;;4.22;3.53;;;;;;;-146.25;100.00;52528.38;2018928;29;20045;-63
2024/01/24 01:38:16;;;;;;;4.65;2.97;;;;;;;-146.25;100.00;52550.69;2018449;29;36245;-64
2024/01/24 01:39:18;;;;;;;5.80;3.80;;;;;;;-146.25;100.00;52554.75;2018247;29;34799;-63
2024/01/24 01:40:20;;;;;;;3.97;3.50;;;;;;;-146.25;100.00;52546.63;2018691;29;29867;-64
2024/01/24 01:41:22;;;;;;;5.65;3.67;;;;;;;-146.25;100.00;52562.84;2025598;29;33134;-64
2024/01/24 01:42:24;;;;;;;4.15;2.92;;;;;;;-146.25;100.00;52552.72;2025802;29;20925;-63
2024/01/24 01:43:26;;;;;;;3.92;2.92;;;;;;;-146.25;100.00;52516.22;2017814;29;34952;-64
2024/01/24 01:44:28;;;;;;;3.63;3.03;;;;;;;-146.25;100.00;52522.28;2018307;29;35906;-64
2024/01/24 01:45:29;;;;;;;4.65;3.42;;;;;;;-146.25;100.00;52554.75;2018523;29;20053;-64
2024/01/24 01:46:32;;;;;;;6.03;2.97;;;;;;;-146.25;100.00;52550.69;2018131;29;34727;-64
2024/01/24 01:47:34;;;;;;;4.38;3.03;;;;;;;-146.25;100.00;52540.53;2025758;29;20152;-63
2024/01/24 01:48:37;;;;;;;3.60;2.67;;;;;;;-146.25;100.00;52528.38;2025061;29;34693;-64
2024/01/24 01:49:40;;;;;;;4.38;3.08;;;;;;;-146.25;100.00;52542.56;2024475;29;37631;-63
2024/01/24 01:50:42;;;;;;;4.07;2.85;;;;;;;-146.25;100.00;52514.19;2025149;29;31385;-64
2024/01/24 01:51:45;;;;;;;3.97;2.58;;;;;;;-146.25;100.00;52522.28;2018829;29;20883;-64
2024/01/24 01:52:48;;;;;;;4.32;2.60;;;;;;;-146.25;100.00;52546.63;2024926;29;36448;-64
2024/01/24 01:53:49;;;;;;;6.78;2.47;;;;;;;-146.25;100.00;52573.00;2025415;29;26957;-64
2024/01/24 01:54:52;;;;;;;3.85;2.50;;;;;;;-146.25;100.00;52589.22;2017810;29;32280;-64
2024/01/24 01:55:54;;;;;;;2.35;2.15;;;;;;;-146.25;100.00;52550.69;2025388;29;35665;-64
2024/01/24 01:56:56;;;;;;;2.15;1.95;;;;;;;-146.25;100.00;52562.84;2024993;29;29777;-64
2024/01/24 01:58:00;;;;;;;2.83;2.35;;;;;;;-146.25;100.00;52534.47;2018742;29;20879;-64
2024/01/24 01:59:05;;;;;;;2.38;1.88;;;;;;;-146.25;100.00;52562.84;2019156;29;20038;-64
2024/01/24 02:00:10;;;;;;;2.58;1.80;;;;;;;-146.25;100.00;52558.78;2018055;29;34438;-64
2024/01/24 02:01:13;;;;;;;2.67;2.30;;;;;;;-146.25;100.00;52542.56;2025349;29;33837;-64
2024/01/24 02:02:22;;;;;;;3.05;1.80;;;;;;;-146.25;100.00;52522.28;2025678;29;20041;-63
2024/01/24 02:03:24;;;;;;;4.03;1.60;;;;;;;-146.25;100.00;52536.50;2016097;29;20887;-64
2024/01/24 02:04:26;;;;;;;1.77;1.45;;;;;;;-146.25;100.00;52506.06;2016516;29;34473;-64
2024/01/24 02:05:28;;;;;;;2.30;1.58;;;;;;;-146.25;100.00;52526.34;2023965;29;31758;-64
2024/01/24 02:06:30;;;;;;;1.85;1.52;;;;;;;-146.25;100.00;52566.91;2023941;29;34277;-64
2024/01/24 02:07:32;;;;;;;1.63;1.20;;;;;;;-146.25;100.00;52532.44;2024067;29;35009;-63
2024/01/24 02:08:35;;;;;;;2.17;1.48;;;;;;;-146.25;100.00;52512.16;2024270;29;20853;-64
2024/01/24 02:09:37;;;;;;;1.75;1.02;;;;;;;-146.25;100.00;52566.91;2016584;29;36775;-64
2024/01/24 02:10:39;;;;;;;1.33;1.23;;;;;;;-146.25;100.00;52532.44;2016080;29;35257;-64
2024/01/24 02:11:40;;;;;;;2.85;1.08;;;;;;;-146.25;100.00;52544.59;2016947;29;35500;-63
2024/01/24 02:12:42;;;;;;;1.35;0.80;;;;;;;-146.25;100.00;52556.75;2016372;29;30361;-64
2024/01/24 02:13:47;;;;;;;1.70;0.93;;;;;;;-146.25;100.00;52552.72;2017023;29;32595;-64
2024/01/24 02:14:48;;;;;;;2.45;0.90;;;;;;;-146.25;100.00;52554.75;2016620;29;33447;-63
2024/01/24 02:15:50;;;;;;;1.50;0.90;;;;;;;-146.25;100.00;52518.25;2024127;29;32273;-64
2024/01/24 02:16:52;;;;;;;1.40;0.90;;;;;;;-146.25;100.00;52504.03;2024437;29;20115;-64
2024/01/24 02:17:54;;;;;;;1.92;0.80;;;;;;;-146.25;100.00;52558.78;2016814;29;36083;-64
2024/01/24 02:18:55;;;;;;;4.05;0.80;;;;;;;-146.25;100.00;52550.69;2016465;29;36405;-64
2024/01/24 02:19:57;;;;;;;1.45;0.60;;;;;;;-146.25;100.00;52520.28;2016509;29;35727;-63
2024/01/24 02:20:59;;;;;;;1.80;0.70;;;;;;;-146.25;100.00;52518.25;2016686;29;38157;-65
2024/01/24 02:22:01;;;;;;;2.08;0.50;;;;;;;-146.25;100.00;52546.63;2016570;29;35496;-64
2024/01/24 02:23:03;;;;;;;4.20;0.50;;;;;;;-146.25;100.00;52566.91;2017458;29;20183;-64
2024/01/24 02:24:12;;;;;;;0.93;0.60;;;;;;;-146.25;100.00;52512.16;2016790;29;35176;-64
2024/01/24 02:25:14;;;;;;;1.48;0.47;;;;;;;-146.25;100.00;52526.34;2024378;29;35580;-63
2024/01/24 02:26:16;;;;;;;0.82;0.30;;;;;;;-146.25;100.00;52532.44;2023559;29;33681;-64
2024/01/24 02:27:18;;;;;;;0.88;0.30;;;;;;;-146.25;100.00;52554.75;2016106;29;37025;-63
2024/01/24 02:28:20;;;;;;;0.90;0.28;;;;;;;-146.25;100.00;52550.69;2017459;29;20041;-63
2024/01/24 02:29:22;;;;;;;0.32;0.20;;;;;;;-146.25;100.00;52564.88;2016211;29;31926;-63
2024/01/24 02:30:23;;;;;;;1.27;0.30;;;;;;;-146.25;100.00;52522.28;2017618;29;20811;-63
2024/01/24 02:31:25;;;;;;;0.68;0.20;;;;;;;-146.25;100.00;52554.75;2016155;29;35176;-63
2024/01/24 02:32:27;;;;;;;1.38;0.30;;;;;;;-146.25;100.00;52552.72;2016902;29;33249;-63
2024/01/24 02:33:29;;;;;;;1.35;0.25;;;;;;;-146.25;100.00;52566.91;2016576;29;33836;-63
2024/01/24 02:34:33;;;;;;;2.10;0.25;;;;;;;-146.25;100.00;52534.47;2016645;29;32800;-63
2024/01/24 02:35:35;;;;;;;1.00;0.30;;;;;;;-146.25;100.00;52504.03;2015956;29;34035;-64
2024/01/24 02:36:39;;;;;;;2.42;0.32;;;;;;;-146.25;100.00;52542.56;2023601;29;31877;-63
2024/01/24 02:37:40;;;;;;;1.65;0.20;;;;;;;-146.25;100.00;52534.47;2022853;29;37598;-64
2024/01/24 02:38:42;;;;;;;1.13;0.38;;;;;;;-146.25;100.00;52558.78;2016695;29;33167;-64
2024/01/24 02:39:44;;;;;;;1.70;0.25;;;;;;;-146.25;100.00;52485.81;2017229;29;20787;-63
2024/01/24 02:40:46;;;;;;;2.13;0.20;;;;;;;-146.25;100.00;52534.47;2017166;29;20113;-64
2024/01/24 02:41:48;;;;;;;0.90;0.20;;;;;;;-146.25;100.00;52526.34;2023354;29;34878;-64
2024/01/24 02:42:49;;;;;;;1.85;0.30;;;;;;;-146.25;100.00;52536.50;2023912;29;33683;-63
2024/01/24 02:43:51;;;;;;;2.33;0.20;;;;;;;-146.25;100.00;52522.28;2016942;29;20050;-63
2024/01/24 02:44:58;;;;;;;1.23;0.20;;;;;;;-146.25;100.00;52548.66;2017097;29;20165;-63
2024/01/24 02:46:00;;;;;;;0.80;0.20;;;;;;;-146.25;100.00;52544.59;2016442;29;34215;-63
2024/01/24 02:47:02;;;;;;;0.60;0.20;;;;;;;-146.25;100.00;52544.59;2015781;29;32912;-63
2024/01/24 02:48:05;;;;;;;0.38;0.13;;;;;;;-146.25;100.00;52532.44;2016589;29;31010;-63
2024/01/24 02:49:06;;;;;;;1.10;0.10;;;;;;;-146.25;100.00;52566.91;2016581;29;33720;-63
2024/01/24 02:50:09;;;;;;;0.57;0.15;;;;;;;-146.25;100.00;52550.69;2016429;29;32928;-62
2024/01/24 02:51:26;;;;;;;1.27;0.15;;;;;;;-146.25;100.00;52566.91;2017049;29;33075;-63
2024/01/24 02:52:28;;;;;;;0.88;0.10;;;;;;;-146.25;100.00;52506.06;2016765;29;34680;-62
2024/01/24 02:53:30;;;;;;;1.10;0.10;;;;;;;-146.25;100.00;52520.28;2016658;29;36235;-63
2024/01/24 02:54:32;;;;;;;2.25;0.20;;;;;;;-146.25;100.00;52570.97;2017015;29;20041;-63
2024/01/24 02:55:33;;;;;;;3.13;0.20;;;;;;;-146.25;100.00;52526.34;2016832;29;37193;-63
2024/01/24 02:56:38;;;;;;;2.40;0.20;;;;;;;-146.25;100.00;52550.69;2016444;29;35713;-63
2024/01/24 02:57:40;;;;;;;2.40;0.20;;;;;;;-146.25;100.00;52560.81;2016052;29;34821;-63
2024/01/24 02:58:44;;;;;;;1.50;0.10;;;;;;;-146.25;100.00;52536.50;2015100;29;35531;-63
2024/01/24 02:59:45;;;;;;;2.58;0.30;;;;;;;-146.25;100.00;52544.59;2016555;29;32997;-63
2024/01/24 03:00:47;;;;;;;0.70;0.20;;;;;;;-146.25;100.00;52518.25;2022926;29;35347;-63
2024/01/24 03:01:49;;;;;;;0.98;0.20;;;;;;;-146.25;100.00;52526.34;2023683;29;35495;-63
2024/01/24 03:02:53;;;;;;;0.60;0.17;;;;;;;-146.25;100.00;52554.75;2017058;29;20092;-63
2024/01/24 03:03:55;;;;;;;0.60;0.10;;;;;;;-146.25;100.00;52550.69;2016538;29;37219;-64
2024/01/24 03:04:56;;;;;;;1.85;0.10;;;;;;;-146.25;100.00;52526.34;2016083;29;33026;-63
2024/01/24 03:05:58;;;;;;;3.17;0.13;;;;;;;-146.25;100.00;52504.03;2023704;29;36105;-63
2024/01/24 03:07:00;;;;;;;1.58;0.10;;;;;;;-146.25;100.00;52534.47;2023213;29;37784;-63
2024/01/24 03:08:03;;;;;;;2.33;0.10;;;;;;;-146.25;100.00;52548.66;2017254;29;20049;-63
2024/01/24 03:09:05;;;;;;;1.00;0.10;;;;;;;-146.25;100.00;52575.00;2016290;29;37264;-63
2024/01/24 03:10:08;;;;;;;0.63;0.10;;;;;;;-146.25;100.00;52524.31;2016576;29;33634;-63
2024/01/24 03:11:10;;;;;;;3.55;0.20;;;;;;;-146.25;100.00;52530.41;2016888;29;29900;-63
2024/01/24 03:12:12;;;;;;;1.77;0.17;;;;;;;-146.25;100.00;52575.00;2016582;29;37127;-63
2024/01/24 03:13:14;;;;;;;1.77;0.10;;;;;;;-146.25;100.00;52528.38;2016366;29;36722;-63
2024/01/24 03:14:16;;;;;;;4.35;0.17;;;;;;;-146.25;100.00;52556.75;2016741;29;31363;-63
2024/01/24 03:15:18;;;;;;;2.50;0.10;;;;;;;-146.25;100.00;52546.63;2016761;29;20049;-63
2024/01/24 03:16:20;;;;;;;1.73;0.28;;;;;;;-146.25;100.00;52542.56;2016618;29;35259;-63
2024/01/24 03:17:22;;;;;;;1.90;0.10;;;;;;;-146.25;100.00;52562.84;2016333;29;34211;-63
2024/01/24 03:18:24;;;;;;;3.42;0.28;;;;;;;-146.25;100.00;52566.91;2016601;29;33137;-63
2024/01/24 03:19:28;;;;;;;2.30;0.20;;;;;;;-146.25;100.00;52575.00;2016436;29;33841;-63
2024/01/24 03:20:30;;;;;;;2.88;0.30;;;;;;;-146.25;100.00;52528.38;2016248;29;35515;-63
2024/01/24 03:21:32;;;;;;;5.07;0.30;;;;;;;-146.25;100.00;52544.59;2016049;29;36704;-64
2024/01/24 03:22:34;;;;;;;7.75;0.63;;;;;;;-146.25;100.00;52554.75;2017156;29;20034;-63
2024/01/24 03:23:39;;;;;;;4.57;0.30;;;;;;;-146.25;100.00;52562.84;2016078;29;36070;-63
2024/01/24 03:24:43;;;;;;;3.13;0.20;;;;;;;-146.25;100.00;52570.97;2016263;29;33693;-63
2024/01/24 03:25:45;;;;;;;4.93;0.38;;;;;;;-146.25;100.00;52540.53;2016044;29;36977;-63
2024/01/24 03:26:46;;;;;;;3.92;0.30;;;;;;;-146.25;100.00;52542.56;2016577;29;37177;-63
2024/01/24 03:27:48;;;;;;;4.15;0.20;;;;;;;-146.25;100.00;52575.00;2016394;29;34894;-63
2024/01/24 03:28:50;;;;;;;4.43;0.32;;;;;;;-146.25;100.00;52548.66;2016575;29;35808;-63
2024/01/24 03:29:52;;;;;;;5.53;0.30;;;;;;;-146.25;100.00;52587.19;2016311;29;32850;-63
2024/01/24 03:30:54;;;;;;;5.65;0.47;;;;;;;-146.25;100.00;52568.94;2017216;29;20049;-63
2024/01/24 03:31:59;;;;;;;4.40;0.40;;;;;;;-146.25;100.00;52577.03;2017090;29;20045;-63
2024/01/24 03:33:01;;;;;;;2.47;0.20;;;;;;;-146.25;100.00;52568.94;2016747;29;35331;-63
2024/01/24 03:34:05;;;;;;;3.28;0.20;;;;;;;-146.25;100.00;52570.97;2016418;29;32564;-63
2024/01/24 03:35:07;;;;;;;4.65;0.40;;;;;;;-146.25;100.00;52603.41;2016015;29;36494;-63
2024/01/24 03:36:09;;;;;;;4.20;0.45;;;;;;;-146.25;100.00;52544.59;2016084;29;30122;-63
2024/01/24 03:37:10;;;;;;;4.22;0.30;;;;;;;-146.25;100.00;52568.94;2023897;29;20033;-63
2024/01/24 03:38:12;;;;;;;4.72;0.50;;;;;;;-146.25;100.00;52573.00;2022468;29;33779;-61
2024/01/24 03:39:14;;;;;;;5.57;0.50;;;;;;;-146.25;100.00;52510.13;2023206;29;34135;-63
2024/01/24 03:40:16;;;;;;;4.45;0.30;;;;;;;-146.25;100.00;52562.84;2023573;29;20041;-63
2024/01/24 03:41:18;;;;;;;4.40;0.50;;;;;;;-146.25;100.00;52558.78;2017031;29;20069;-63
2024/01/24 03:42:22;;;;;;;5.28;0.28;;;;;;;-146.25;100.00;52599.34;2016826;29;20037;-63
2024/01/24 03:43:23;;;;;;;7.15;0.43;;;;;;;-146.25;100.00;52552.72;2016526;29;34328;-63
2024/01/24 03:44:25;;;;;;;5.90;0.57;;;;;;;-146.25;100.00;52560.81;2016277;29;33432;-63
2024/01/24 03:45:27;;;;;;;5.43;0.40;;;;;;;-146.25;100.00;52573.00;2016802;29;32116;-63
2024/01/24 03:46:31;;;;;;;3.78;0.30;;;;;;;-146.25;100.00;52562.84;2016169;29;36408;-62
2024/01/24 03:47:33;;;;;;;4.55;0.57;;;;;;;-146.25;100.00;52564.88;2016284;29;28069;-63
2024/01/24 03:48:35;;;;;;;5.10;0.47;;;;;;;-146.25;100.00;52570.97;2017028;29;20133;-62
2024/01/24 03:49:37;;;;;;;5.25;0.65;;;;;;;-146.25;100.00;52587.19;2016137;29;37454;-63
2024/01/24 03:50:38;;;;;;;6.38;0.50;;;;;;;-146.25;100.00;52546.63;2016045;29;34973;-63
2024/01/24 03:51:40;;;;;;;3.95;0.50;;;;;;;-146.25;100.00;52587.19;2016227;29;32984;-63
2024/01/24 03:52:42;;;;;;;8.55;0.70;;;;;;;-146.25;100.00;52583.13;2015725;29;37397;-63
2024/01/24 03:53:44;;;;;;;7.90;0.70;;;;;;;-146.25;100.00;52583.13;2016414;29;31690;-63
2024/01/24 03:54:46;;;;;;;3.60;0.30;;;;;;;-146.25;100.00;52536.50;2016254;29;34656;-63
2024/01/24 03:55:47;;;;;;;5.75;0.60;;;;;;;-146.25;100.00;52564.88;2016648;29;20053;-63
2024/01/24 03:56:49;;;;;;;4.97;0.52;;;;;;;-146.25;100.00;52566.91;2016339;29;31149;-63
2024/01/24 03:57:51;;;;;;;8.90;0.60;;;;;;;-146.25;100.00;52570.97;2016316;29;33783;-63
2024/01/24 03:58:53;;;;;;;6.97;0.70;;;;;;;-146.25;100.00;52534.47;2016440;29;20041;-63
2024/01/24 03:59:55;;;;;;;3.90;0.50;;;;;;;-146.25;100.00;52532.44;2016183;29;37612;-63
2024/01/24 04:00:57;;;;;;;6.72;0.43;;;;;;;-146.25;100.00;52534.47;2016412;29;20042;-62
2024/01/24 04:01:59;;;;;;;6.32;0.40;;;;;;;-146.25;100.00;52581.09;2016281;29;35355;-62
2024/01/24 04:03:00;;;;;;;9.40;1.00;;;;;;;-146.25;100.00;52552.72;2016209;29;32873;-62
2024/01/24 04:04:02;;;;;;;8.55;0.93;;;;;;;-146.25;100.00;52579.06;2016455;29;20193;-63
2024/01/24 04:05:05;;;;;;;7.82;0.68;;;;;;;-146.25;100.00;52568.94;2015900;29;36306;-63
2024/01/24 04:06:07;;;;;;;6.50;0.63;;;;;;;-146.25;100.00;52585.16;2016307;29;35056;-62
2024/01/24 04:07:08;;;;;;;6.75;0.73;;;;;;;-146.25;100.00;52575.00;2016187;29;33335;-62
2024/01/24 04:08:10;;;;;;;7.35;0.60;;;;;;;-146.25;100.00;52568.94;2016138;29;36957;-63
2024/01/24 04:09:15;;;;;;;8.75;0.90;;;;;;;-146.25;100.00;52575.00;2016147;29;33102;-63
2024/01/24 04:10:17;;;;;;;11.63;0.60;;;;;;;-146.25;100.00;52583.13;2016163;29;34175;-62
2024/01/24 04:11:19;;;;;;;9.25;0.80;;;;;;;-146.25;100.00;52621.66;2023275;29;36314;-62
2024/01/24 04:12:20;;;;;;;10.57;0.98;;;;;;;-146.25;100.00;52585.16;2022992;29;32514;-62
2024/01/24 04:13:23;;;;;;;9.85;0.88;;;;;;;-146.25;100.00;52599.34;2015855;29;35703;-62
2024/01/24 04:14:25;;;;;;;10.65;1.13;;;;;;;-146.25;100.00;52568.94;2016175;29;34518;-62
2024/01/24 04:15:27;;;;;;;10.55;0.90;;;;;;;-146.25;100.00;52585.16;2016542;29;20875;-62
2024/01/24 04:16:32;;;;;;;12.35;1.13;;;;;;;-146.25;100.00;52599.34;2016051;29;36071;-62
2024/01/24 04:17:34;;;;;;;8.48;0.88;;;;;;;-146.25;100.00;52570.97;2017360;29;20891;-62
2024/01/24 04:18:36;;;;;;;8.35;1.25;;;;;;;-146.25;100.00;52599.34;2016643;29;20962;-62
2024/01/24 04:19:40;;;;;;;11.23;1.20;;;;;;;-146.25;100.00;52562.84;2016468;29;20045;-62
2024/01/24 04:20:41;;;;;;;13.77;1.40;;;;;;;-146.25;100.00;52560.81;2015880;29;33780;-62
2024/01/24 04:21:43;;;;;;;11.95;1.27;;;;;;;-146.25;100.00;52579.06;2016202;29;34531;-62
2024/01/24 04:22:45;;;;;;;10.55;0.80;;;;;;;-146.25;100.00;52575.00;2016403;29;32414;-62
2024/01/24 04:23:47;;;;;;;9.55;1.10;;;;;;;-146.25;100.00;52564.88;2015965;29;34029;-62
2024/01/24 04:24:49;;;;;;;9.75;1.48;;;;;;;-146.25;100.00;52581.09;2015509;29;36453;-62
2024/01/24 04:25:50;;;;;;;12.63;1.10;;;;;;;-146.25;100.00;52554.75;2015913;29;33994;-62
2024/01/24 04:26:55;;;;;;;11.70;1.23;;;;;;;-146.25;100.00;52591.25;2015610;29;34371;-62
2024/01/24 04:28:00;;;;;;;10.82;1.33;;;;;;;-146.25;100.00;52568.94;2015829;29;36826;-62
2024/01/24 04:29:02;;;;;;;12.27;1.58;;;;;;;-146.25;100.00;52615.56;2016733;29;20038;-62
2024/01/24 04:30:05;;;;;;;12.43;1.88;;;;;;;-146.25;100.00;52575.00;2015983;29;34479;-62
2024/01/24 04:31:07;;;;;;;9.65;1.63;;;;;;;-146.25;100.00;52554.75;2016249;29;32190;-62
2024/01/24 04:32:09;;;;;;;10.77;1.50;;;;;;;-146.25;100.00;52570.97;2015994;29;34431;-62
2024/01/24 04:33:13;;;;;;;11.90;1.50;;;;;;;-146.25;100.00;52573.00;2016003;29;37655;-62
2024/01/24 04:34:17;;;;;;;13.23;1.45;;;;;;;-146.25;100.00;52579.06;2016458;29;20037;-62
2024/01/24 04:35:19;;;;;;;14.60;1.50;;;;;;;-146.25;100.00;52593.25;2015657;29;37759;-61
2024/01/24 04:36:21;;;;;;;14.73;1.77;;;;;;;-146.25;100.00;52546.63;2016129;29;33145;-62
2024/01/24 04:37:28;;;;;;;16.05;1.85;;;;;;;-146.25;100.00;52570.97;2016653;29;20041;-62
2024/01/24 04:38:29;;;;;;;16.73;1.98;;;;;;;-146.25;100.00;52548.66;2016035;29;38691;-62
2024/01/24 04:39:31;;;;;;;15.00;1.85;;;;;;;-146.25;100.00;52573.00;2016244;29;34683;-62
2024/01/24 04:40:33;;;;;;;15.35;2.00;;;;;;;-146.25;100.00;52534.47;2016461;29;20891;-62
2024/01/24 04:41:35;;;;;;;16.38;1.85;;;;;;;-146.25;100.00;52564.88;2016005;29;37558;-62
2024/01/24 04:42:40;;;;;;;13.60;1.63;;;;;;;-146.25;100.00;52587.19;2016065;29;33235;-62